ADDS METAR Data INFO
IDs: Format: Raw Decoded Include TAF

Data at: 0917 UTC 17 Oct 2017

PALG 170856Z AUTO 07004KT CLR 00/M01 A2956 RMK AO2 SLP296 PWINO FZRANO TSNO RVRNO
PALG 170756Z AUTO 06004KT CLR 01/00 A2958 RMK AO2 SLP296 PWINO FZRANO TSNO RVRNO
PALG 170707Z AUTO 07004KT SCT011 OVC038 00/00 A2960 RMK AO2 PWINO FZRANO $
PALG 170656Z AUTO 07004KT BKN011 OVC038 01/00 A2960 RMK AO2 SLP028 T00060000 PWINO FZRANO $
PALG 170636Z AUTO 07004KT BKN011 OVC040 00/00 A2961 RMK AO2 PWINO FZRANO $
PALG 170556Z AUTO 08003KT CLR M02/M02 A2961 RMK AO2 SLP296 57010 PWINO FZRANO TSNO RVRNO
PALG 170456Z AUTO 00000KT CLR M02/M02 A2961 RMK AO2 SLP296 PWINO FZRANO TSNO RVRNO
PALG 170356Z AUTO 00000KT CLR M01/M02 A2963 RMK AO2 SLP296 PWINO FZRANO TSNO RVRNO
PALG 170256Z AUTO 00000KT CLR 03/01 A2964 RMK AO2 SLP296 PWINO FZRANO TSNO RVRNO
PALG 170156Z AUTO 00000KT SCT011 03/01 A2965 RMK AO2 SLP297 PWINO FZRANO TSNO RVRNO
PALG 170127Z AUTO 19004KT OVC011 04/02 A2966 RMK AO2 PWINO $
PALG 170056Z AUTO 18003KT BKN009 OVC013 03/02 A2967 RMK AO2 SLP297 PWINO FZRANO TSNO RVRNO